sensor_id;sensor_type;location;lat;lon;timestamp;P1;durP1;ratioP1;P2;durP2;ratioP2
5880;SDS011;2966;52.598;10.928;2022-10-15T00:01:21;6.87;;;5.97;;
5880;SDS011;2966;52.598;10.928;2022-10-15T00:03:47;11.30;;;6.77;;
5880;SDS011;2966;52.598;10.928;2022-10-15T00:06:16;8.00;;;6.53;;
5880;SDS011;2966;52.598;10.928;2022-10-15T00:08:44;6.83;;;6.10;;
5880;SDS011;2966;52.598;10.928;2022-10-15T00:11:13;7.50;;;6.63;;
5880;SDS011;2966;52.598;10.928;2022-10-15T00:13:41;20.60;;;6.80;;
5880;SDS011;2966;52.598;10.928;2022-10-15T00:16:10;8.10;;;6.37;;
5880;SDS011;2966;52.598;10.928;2022-10-15T00:18:38;7.63;;;5.90;;
5880;SDS011;2966;52.598;10.928;2022-10-15T00:21:06;6.07;;;5.50;;
5880;SDS011;2966;52.598;10.928;2022-10-15T00:23:35;7.30;;;6.47;;
5880;SDS011;2966;52.598;10.928;2022-10-15T00:26:03;7.47;;;6.00;;
5880;SDS011;2966;52.598;10.928;2022-10-15T00:28:31;7.30;;;5.90;;
5880;SDS011;2966;52.598;10.928;2022-10-15T00:30:59;11.87;;;6.47;;
5880;SDS011;2966;52.598;10.928;2022-10-15T00:33:27;7.97;;;5.83;;
5880;SDS011;2966;52.598;10.928;2022-10-15T00:35:57;7.70;;;6.90;;
5880;SDS011;2966;52.598;10.928;2022-10-15T00:38:27;11.83;;;6.03;;
5880;SDS011;2966;52.598;10.928;2022-10-15T00:40:56;8.00;;;5.80;;
5880;SDS011;2966;52.598;10.928;2022-10-15T00:43:36;7.90;;;6.20;;
5880;SDS011;2966;52.598;10.928;2022-10-15T00:46:04;7.70;;;6.27;;
5880;SDS011;2966;52.598;10.928;2022-10-15T00:48:37;8.03;;;7.00;;
5880;SDS011;2966;52.598;10.928;2022-10-15T00:51:04;5.77;;;5.17;;
5880;SDS011;2966;52.598;10.928;2022-10-15T00:53:31;9.50;;;7.40;;
5880;SDS011;2966;52.598;10.928;2022-10-15T00:56:00;7.20;;;6.50;;
5880;SDS011;2966;52.598;10.928;2022-10-15T00:58:28;8.57;;;6.20;;
5880;SDS011;2966;52.598;10.928;2022-10-15T01:00:57;8.50;;;7.20;;
5880;SDS011;2966;52.598;10.928;2022-10-15T01:03:24;8.10;;;6.50;;
5880;SDS011;2966;52.598;10.928;2022-10-15T01:05:52;7.97;;;5.57;;
5880;SDS011;2966;52.598;10.928;2022-10-15T01:08:19;9.10;;;6.17;;
5880;SDS011;2966;52.598;10.928;2022-10-15T01:10:47;8.50;;;6.90;;
5880;SDS011;2966;52.598;10.928;2022-10-15T01:13:24;7.60;;;6.83;;
5880;SDS011;2966;52.598;10.928;2022-10-15T01:15:58;7.13;;;5.57;;
5880;SDS011;2966;52.598;10.928;2022-10-15T01:18:31;7.43;;;6.60;;
5880;SDS011;2966;52.598;10.928;2022-10-15T01:21:04;10.40;;;6.00;;
5880;SDS011;2966;52.598;10.928;2022-10-15T01:33:00;7.17;;;6.00;;
5880;SDS011;2966;52.598;10.928;2022-10-15T01:35:34;13.60;;;7.90;;
5880;SDS011;2966;52.598;10.928;2022-10-15T01:38:12;9.13;;;7.37;;
5880;SDS011;2966;52.598;10.928;2022-10-15T01:40:51;7.07;;;6.37;;
5880;SDS011;2966;52.598;10.928;2022-10-15T01:43:25;11.53;;;7.33;;
5880;SDS011;2966;52.598;10.928;2022-10-15T01:45:57;7.77;;;6.20;;
5880;SDS011;2966;52.598;10.928;2022-10-15T01:48:28;7.77;;;6.87;;
5880;SDS011;2966;52.598;10.928;2022-10-15T01:50:57;14.93;;;7.40;;
5880;SDS011;2966;52.598;10.928;2022-10-15T01:53:27;9.00;;;7.33;;
5880;SDS011;2966;52.598;10.928;2022-10-15T01:55:55;12.00;;;6.90;;
5880;SDS011;2966;52.598;10.928;2022-10-15T01:58:24;11.17;;;7.50;;
5880;SDS011;2966;52.598;10.928;2022-10-15T02:00:52;10.60;;;6.87;;
5880;SDS011;2966;52.598;10.928;2022-10-15T02:03:22;8.87;;;6.37;;
5880;SDS011;2966;52.598;10.928;2022-10-15T02:05:50;8.40;;;7.50;;
5880;SDS011;2966;52.598;10.928;2022-10-15T02:08:25;10.23;;;7.77;;
5880;SDS011;2966;52.598;10.928;2022-10-15T02:10:58;9.33;;;7.60;;
5880;SDS011;2966;52.598;10.928;2022-10-15T02:13:31;11.20;;;7.23;;
5880;SDS011;2966;52.598;10.928;2022-10-15T02:16:10;10.07;;;7.50;;
5880;SDS011;2966;52.598;10.928;2022-10-15T02:18:43;9.10;;;7.53;;
5880;SDS011;2966;52.598;10.928;2022-10-15T02:21:19;10.43;;;7.10;;
5880;SDS011;2966;52.598;10.928;2022-10-15T02:23:51;13.40;;;8.83;;
5880;SDS011;2966;52.598;10.928;2022-10-15T02:26:22;8.93;;;6.73;;
5880;SDS011;2966;52.598;10.928;2022-10-15T02:28:56;10.80;;;8.50;;
5880;SDS011;2966;52.598;10.928;2022-10-15T02:31:24;10.20;;;7.47;;
5880;SDS011;2966;52.598;10.928;2022-10-15T02:33:57;12.63;;;7.87;;
5880;SDS011;2966;52.598;10.928;2022-10-15T02:36:28;10.13;;;7.40;;
5880;SDS011;2966;52.598;10.928;2022-10-15T02:38:55;9.97;;;7.73;;
5880;SDS011;2966;52.598;10.928;2022-10-15T02:41:25;11.50;;;9.53;;
5880;SDS011;2966;52.598;10.928;2022-10-15T02:43:53;11.83;;;7.70;;
5880;SDS011;2966;52.598;10.928;2022-10-15T02:46:20;10.10;;;7.13;;
5880;SDS011;2966;52.598;10.928;2022-10-15T02:48:47;14.30;;;8.53;;
5880;SDS011;2966;52.598;10.928;2022-10-15T02:51:15;9.23;;;6.50;;
5880;SDS011;2966;52.598;10.928;2022-10-15T02:53:42;9.83;;;7.93;;
5880;SDS011;2966;52.598;10.928;2022-10-15T02:56:09;10.47;;;8.53;;
5880;SDS011;2966;52.598;10.928;2022-10-15T02:58:36;11.07;;;8.40;;
5880;SDS011;2966;52.598;10.928;2022-10-15T03:01:02;12.20;;;8.37;;
5880;SDS011;2966;52.598;10.928;2022-10-15T03:03:30;13.70;;;9.50;;
5880;SDS011;2966;52.598;10.928;2022-10-15T03:05:56;10.67;;;8.00;;
5880;SDS011;2966;52.598;10.928;2022-10-15T03:08:25;15.87;;;8.80;;
5880;SDS011;2966;52.598;10.928;2022-10-15T03:10:51;11.50;;;9.63;;
5880;SDS011;2966;52.598;10.928;2022-10-15T03:13:18;15.90;;;9.57;;
5880;SDS011;2966;52.598;10.928;2022-10-15T03:15:45;16.93;;;10.07;;
5880;SDS011;2966;52.598;10.928;2022-10-15T03:18:12;15.00;;;9.27;;
5880;SDS011;2966;52.598;10.928;2022-10-15T03:20:38;15.47;;;10.30;;
5880;SDS011;2966;52.598;10.928;2022-10-15T03:23:05;13.73;;;9.07;;
5880;SDS011;2966;52.598;10.928;2022-10-15T03:25:37;16.00;;;10.50;;
5880;SDS011;2966;52.598;10.928;2022-10-15T03:28:04;14.10;;;9.33;;
5880;SDS011;2966;52.598;10.928;2022-10-15T03:30:30;15.23;;;10.93;;
5880;SDS011;2966;52.598;10.928;2022-10-15T03:32:57;19.53;;;12.80;;
5880;SDS011;2966;52.598;10.928;2022-10-15T03:35:24;15.80;;;9.87;;
5880;SDS011;2966;52.598;10.928;2022-10-15T03:37:51;15.00;;;11.47;;
5880;SDS011;2966;52.598;10.928;2022-10-15T03:40:17;21.70;;;10.20;;
5880;SDS011;2966;52.598;10.928;2022-10-15T03:42:49;18.63;;;12.40;;
5880;SDS011;2966;52.598;10.928;2022-10-15T03:45:16;14.30;;;9.57;;
5880;SDS011;2966;52.598;10.928;2022-10-15T03:47:43;17.23;;;10.53;;
5880;SDS011;2966;52.598;10.928;2022-10-15T03:50:10;15.87;;;10.70;;
5880;SDS011;2966;52.598;10.928;2022-10-15T03:52:37;18.73;;;11.40;;
5880;SDS011;2966;52.598;10.928;2022-10-15T03:55:05;16.70;;;10.47;;
5880;SDS011;2966;52.598;10.928;2022-10-15T03:57:33;17.73;;;10.50;;
5880;SDS011;2966;52.598;10.928;2022-10-15T04:00:02;15.23;;;11.20;;
5880;SDS011;2966;52.598;10.928;2022-10-15T04:02:30;16.07;;;9.73;;
5880;SDS011;2966;52.598;10.928;2022-10-15T04:04:57;12.83;;;9.10;;
5880;SDS011;2966;52.598;10.928;2022-10-15T04:07:24;17.87;;;9.33;;
5880;SDS011;2966;52.598;10.928;2022-10-15T04:09:51;18.20;;;11.10;;
5880;SDS011;2966;52.598;10.928;2022-10-15T04:12:18;15.47;;;10.23;;
5880;SDS011;2966;52.598;10.928;2022-10-15T04:14:45;15.57;;;10.47;;
5880;SDS011;2966;52.598;10.928;2022-10-15T04:17:13;16.90;;;12.27;;
5880;SDS011;2966;52.598;10.928;2022-10-15T04:19:40;16.97;;;12.50;;
5880;SDS011;2966;52.598;10.928;2022-10-15T04:22:07;22.60;;;13.70;;
5880;SDS011;2966;52.598;10.928;2022-10-15T04:24:34;22.60;;;13.17;;
5880;SDS011;2966;52.598;10.928;2022-10-15T04:27:01;23.27;;;16.30;;
5880;SDS011;2966;52.598;10.928;2022-10-15T04:29:27;31.10;;;17.67;;
5880;SDS011;2966;52.598;10.928;2022-10-15T04:31:54;28.63;;;16.10;;
5880;SDS011;2966;52.598;10.928;2022-10-15T04:34:22;32.63;;;16.63;;
5880;SDS011;2966;52.598;10.928;2022-10-15T04:36:49;31.80;;;17.77;;
5880;SDS011;2966;52.598;10.928;2022-10-15T04:39:16;35.27;;;17.83;;
5880;SDS011;2966;52.598;10.928;2022-10-15T04:41:43;28.90;;;16.80;;
5880;SDS011;2966;52.598;10.928;2022-10-15T04:44:10;27.13;;;17.03;;
5880;SDS011;2966;52.598;10.928;2022-10-15T04:46:37;36.60;;;18.20;;
5880;SDS011;2966;52.598;10.928;2022-10-15T04:49:03;35.30;;;16.80;;
5880;SDS011;2966;52.598;10.928;2022-10-15T04:51:32;35.47;;;18.33;;
5880;SDS011;2966;52.598;10.928;2022-10-15T04:53:58;27.53;;;17.03;;
5880;SDS011;2966;52.598;10.928;2022-10-15T04:56:26;27.83;;;15.77;;
5880;SDS011;2966;52.598;10.928;2022-10-15T04:58:53;31.93;;;14.90;;
5880;SDS011;2966;52.598;10.928;2022-10-15T05:01:19;37.43;;;16.90;;
5880;SDS011;2966;52.598;10.928;2022-10-15T05:03:47;30.43;;;16.80;;
5880;SDS011;2966;52.598;10.928;2022-10-15T05:06:15;26.57;;;15.07;;
5880;SDS011;2966;52.598;10.928;2022-10-15T05:08:45;28.43;;;15.10;;
5880;SDS011;2966;52.598;10.928;2022-10-15T05:11:13;27.27;;;15.90;;
5880;SDS011;2966;52.598;10.928;2022-10-15T05:13:42;29.77;;;15.40;;
5880;SDS011;2966;52.598;10.928;2022-10-15T05:16:10;33.73;;;16.70;;
5880;SDS011;2966;52.598;10.928;2022-10-15T05:18:39;42.93;;;18.30;;
5880;SDS011;2966;52.598;10.928;2022-10-15T05:21:06;41.87;;;16.93;;
5880;SDS011;2966;52.598;10.928;2022-10-15T05:23:34;35.50;;;18.57;;
5880;SDS011;2966;52.598;10.928;2022-10-15T05:26:03;31.40;;;18.33;;
5880;SDS011;2966;52.598;10.928;2022-10-15T05:28:31;50.90;;;19.10;;
5880;SDS011;2966;52.598;10.928;2022-10-15T05:31:03;42.20;;;20.03;;
5880;SDS011;2966;52.598;10.928;2022-10-15T05:33:31;36.90;;;18.80;;
5880;SDS011;2966;52.598;10.928;2022-10-15T05:36:06;34.23;;;18.60;;
5880;SDS011;2966;52.598;10.928;2022-10-15T05:38:33;36.53;;;17.77;;
5880;SDS011;2966;52.598;10.928;2022-10-15T05:41:00;48.30;;;19.33;;
5880;SDS011;2966;52.598;10.928;2022-10-15T05:43:28;35.27;;;18.67;;
5880;SDS011;2966;52.598;10.928;2022-10-15T05:45:55;40.50;;;20.50;;
5880;SDS011;2966;52.598;10.928;2022-10-15T05:48:22;35.70;;;18.60;;
5880;SDS011;2966;52.598;10.928;2022-10-15T05:50:50;38.57;;;19.67;;
5880;SDS011;2966;52.598;10.928;2022-10-15T05:53:16;36.80;;;19.40;;
5880;SDS011;2966;52.598;10.928;2022-10-15T05:55:43;34.57;;;17.67;;
5880;SDS011;2966;52.598;10.928;2022-10-15T05:58:10;41.37;;;18.73;;
5880;SDS011;2966;52.598;10.928;2022-10-15T06:00:38;45.27;;;21.57;;
5880;SDS011;2966;52.598;10.928;2022-10-15T06:03:05;29.30;;;16.70;;
5880;SDS011;2966;52.598;10.928;2022-10-15T06:05:36;40.87;;;18.47;;
5880;SDS011;2966;52.598;10.928;2022-10-15T06:08:02;30.83;;;17.40;;
5880;SDS011;2966;52.598;10.928;2022-10-15T06:10:29;37.57;;;17.93;;
5880;SDS011;2966;52.598;10.928;2022-10-15T06:12:59;36.50;;;18.10;;
5880;SDS011;2966;52.598;10.928;2022-10-15T06:15:26;34.73;;;18.47;;
5880;SDS011;2966;52.598;10.928;2022-10-15T06:17:54;38.40;;;18.33;;
5880;SDS011;2966;52.598;10.928;2022-10-15T06:20:24;35.67;;;17.97;;
5880;SDS011;2966;52.598;10.928;2022-10-15T06:22:55;34.70;;;17.00;;
5880;SDS011;2966;52.598;10.928;2022-10-15T06:25:22;32.33;;;18.27;;
5880;SDS011;2966;52.598;10.928;2022-10-15T06:27:52;35.20;;;18.93;;
5880;SDS011;2966;52.598;10.928;2022-10-15T06:30:19;39.27;;;18.00;;
5880;SDS011;2966;52.598;10.928;2022-10-15T06:32:46;34.20;;;19.50;;
5880;SDS011;2966;52.598;10.928;2022-10-15T06:35:16;30.97;;;17.60;;
5880;SDS011;2966;52.598;10.928;2022-10-15T06:37:44;38.50;;;18.50;;
5880;SDS011;2966;52.598;10.928;2022-10-15T06:40:11;31.23;;;18.97;;
5880;SDS011;2966;52.598;10.928;2022-10-15T06:42:38;38.33;;;20.60;;
5880;SDS011;2966;52.598;10.928;2022-10-15T06:45:06;35.90;;;19.30;;
5880;SDS011;2966;52.598;10.928;2022-10-15T06:47:35;37.27;;;18.83;;
5880;SDS011;2966;52.598;10.928;2022-10-15T06:50:02;38.40;;;19.27;;
5880;SDS011;2966;52.598;10.928;2022-10-15T06:52:31;33.60;;;17.83;;
5880;SDS011;2966;52.598;10.928;2022-10-15T06:54:58;36.23;;;17.27;;
5880;SDS011;2966;52.598;10.928;2022-10-15T06:57:25;36.70;;;17.77;;
5880;SDS011;2966;52.598;10.928;2022-10-15T06:59:53;36.83;;;17.17;;
5880;SDS011;2966;52.598;10.928;2022-10-15T07:02:20;35.63;;;17.33;;
5880;SDS011;2966;52.598;10.928;2022-10-15T07:04:48;39.47;;;16.97;;
5880;SDS011;2966;52.598;10.928;2022-10-15T07:07:15;35.53;;;18.87;;
5880;SDS011;2966;52.598;10.928;2022-10-15T07:09:43;31.70;;;15.73;;
5880;SDS011;2966;52.598;10.928;2022-10-15T07:12:17;40.83;;;18.07;;
5880;SDS011;2966;52.598;10.928;2022-10-15T07:14:46;37.50;;;19.87;;
5880;SDS011;2966;52.598;10.928;2022-10-15T07:17:13;43.77;;;20.73;;
5880;SDS011;2966;52.598;10.928;2022-10-15T07:19:40;39.70;;;19.87;;
5880;SDS011;2966;52.598;10.928;2022-10-15T07:22:06;43.93;;;22.40;;
5880;SDS011;2966;52.598;10.928;2022-10-15T07:24:33;43.03;;;20.27;;
5880;SDS011;2966;52.598;10.928;2022-10-15T07:27:03;43.57;;;20.47;;
5880;SDS011;2966;52.598;10.928;2022-10-15T07:29:30;44.70;;;22.30;;
5880;SDS011;2966;52.598;10.928;2022-10-15T07:31:57;44.50;;;23.13;;
5880;SDS011;2966;52.598;10.928;2022-10-15T07:34:24;40.63;;;21.37;;
5880;SDS011;2966;52.598;10.928;2022-10-15T07:36:51;45.80;;;20.90;;
5880;SDS011;2966;52.598;10.928;2022-10-15T07:39:20;44.47;;;23.90;;
5880;SDS011;2966;52.598;10.928;2022-10-15T07:41:47;40.20;;;19.00;;
5880;SDS011;2966;52.598;10.928;2022-10-15T07:44:15;40.10;;;20.50;;
5880;SDS011;2966;52.598;10.928;2022-10-15T07:46:42;48.87;;;20.77;;
5880;SDS011;2966;52.598;10.928;2022-10-15T07:49:09;40.77;;;21.27;;
5880;SDS011;2966;52.598;10.928;2022-10-15T07:51:35;36.03;;;21.47;;
5880;SDS011;2966;52.598;10.928;2022-10-15T07:54:02;39.87;;;19.30;;
5880;SDS011;2966;52.598;10.928;2022-10-15T07:56:29;36.43;;;18.80;;
5880;SDS011;2966;52.598;10.928;2022-10-15T07:58:56;32.87;;;19.70;;
5880;SDS011;2966;52.598;10.928;2022-10-15T08:01:24;42.67;;;20.67;;
5880;SDS011;2966;52.598;10.928;2022-10-15T08:03:51;39.93;;;25.13;;
5880;SDS011;2966;52.598;10.928;2022-10-15T08:06:18;37.20;;;19.43;;
5880;SDS011;2966;52.598;10.928;2022-10-15T08:08:45;49.37;;;27.20;;
5880;SDS011;2966;52.598;10.928;2022-10-15T08:11:13;34.70;;;21.17;;
5880;SDS011;2966;52.598;10.928;2022-10-15T08:13:41;37.13;;;20.33;;
5880;SDS011;2966;52.598;10.928;2022-10-15T08:16:11;48.00;;;29.63;;
5880;SDS011;2966;52.598;10.928;2022-10-15T08:18:40;33.83;;;21.23;;
5880;SDS011;2966;52.598;10.928;2022-10-15T08:21:07;41.70;;;23.83;;
5880;SDS011;2966;52.598;10.928;2022-10-15T08:23:34;39.10;;;19.80;;
5880;SDS011;2966;52.598;10.928;2022-10-15T08:26:01;41.50;;;23.93;;
5880;SDS011;2966;52.598;10.928;2022-10-15T08:28:29;26.37;;;16.40;;
5880;SDS011;2966;52.598;10.928;2022-10-15T08:30:57;31.50;;;19.77;;
5880;SDS011;2966;52.598;10.928;2022-10-15T08:33:24;32.43;;;19.97;;
5880;SDS011;2966;52.598;10.928;2022-10-15T08:35:54;32.00;;;19.60;;
5880;SDS011;2966;52.598;10.928;2022-10-15T08:38:21;38.67;;;18.90;;
5880;SDS011;2966;52.598;10.928;2022-10-15T08:40:49;29.23;;;20.73;;
5880;SDS011;2966;52.598;10.928;2022-10-15T08:43:19;25.63;;;17.40;;
5880;SDS011;2966;52.598;10.928;2022-10-15T08:45:48;30.27;;;18.47;;
5880;SDS011;2966;52.598;10.928;2022-10-15T08:48:21;33.03;;;21.07;;
5880;SDS011;2966;52.598;10.928;2022-10-15T08:50:56;38.73;;;21.50;;
5880;SDS011;2966;52.598;10.928;2022-10-15T08:53:27;37.37;;;22.10;;
5880;SDS011;2966;52.598;10.928;2022-10-15T08:55:55;37.30;;;20.33;;
5880;SDS011;2966;52.598;10.928;2022-10-15T08:58:27;41.70;;;20.43;;
5880;SDS011;2966;52.598;10.928;2022-10-15T09:01:03;27.53;;;18.00;;
5880;SDS011;2966;52.598;10.928;2022-10-15T09:03:39;35.83;;;21.03;;
5880;SDS011;2966;52.598;10.928;2022-10-15T09:06:18;33.47;;;18.63;;
5880;SDS011;2966;52.598;10.928;2022-10-15T09:08:50;29.93;;;17.57;;
5880;SDS011;2966;52.598;10.928;2022-10-15T09:11:25;35.63;;;20.53;;
5880;SDS011;2966;52.598;10.928;2022-10-15T09:14:00;34.80;;;20.23;;
5880;SDS011;2966;52.598;10.928;2022-10-15T09:16:31;28.20;;;17.73;;
5880;SDS011;2966;52.598;10.928;2022-10-15T09:19:03;32.20;;;17.93;;
5880;SDS011;2966;52.598;10.928;2022-10-15T09:21:37;40.53;;;21.40;;
5880;SDS011;2966;52.598;10.928;2022-10-15T09:24:04;32.70;;;18.07;;
5880;SDS011;2966;52.598;10.928;2022-10-15T09:26:32;37.17;;;21.43;;
5880;SDS011;2966;52.598;10.928;2022-10-15T09:29:13;30.37;;;17.77;;
5880;SDS011;2966;52.598;10.928;2022-10-15T09:31:44;31.53;;;16.47;;
5880;SDS011;2966;52.598;10.928;2022-10-15T09:34:19;34.20;;;20.10;;
5880;SDS011;2966;52.598;10.928;2022-10-15T09:36:52;33.07;;;18.07;;
5880;SDS011;2966;52.598;10.928;2022-10-15T09:39:28;31.70;;;18.90;;
5880;SDS011;2966;52.598;10.928;2022-10-15T09:42:03;37.93;;;20.43;;
5880;SDS011;2966;52.598;10.928;2022-10-15T09:44:41;29.90;;;18.43;;
5880;SDS011;2966;52.598;10.928;2022-10-15T09:47:14;36.50;;;20.77;;
5880;SDS011;2966;52.598;10.928;2022-10-15T09:49:47;36.27;;;21.80;;
5880;SDS011;2966;52.598;10.928;2022-10-15T09:52:17;35.53;;;20.30;;
5880;SDS011;2966;52.598;10.928;2022-10-15T09:54:51;31.57;;;19.77;;
5880;SDS011;2966;52.598;10.928;2022-10-15T09:57:27;38.90;;;18.60;;
5880;SDS011;2966;52.598;10.928;2022-10-15T10:00:00;38.10;;;20.37;;
5880;SDS011;2966;52.598;10.928;2022-10-15T10:02:30;31.30;;;17.37;;
5880;SDS011;2966;52.598;10.928;2022-10-15T10:04:56;33.60;;;17.80;;
5880;SDS011;2966;52.598;10.928;2022-10-15T10:07:43;37.60;;;22.40;;
5880;SDS011;2966;52.598;10.928;2022-10-15T10:10:20;36.90;;;20.33;;
5880;SDS011;2966;52.598;10.928;2022-10-15T10:12:52;34.77;;;21.37;;
5880;SDS011;2966;52.598;10.928;2022-10-15T10:15:26;30.70;;;19.27;;
5880;SDS011;2966;52.598;10.928;2022-10-15T10:17:57;31.23;;;17.00;;
5880;SDS011;2966;52.598;10.928;2022-10-15T10:20:25;28.80;;;17.97;;
5880;SDS011;2966;52.598;10.928;2022-10-15T10:22:54;26.10;;;16.63;;
5880;SDS011;2966;52.598;10.928;2022-10-15T10:25:29;27.73;;;18.00;;
5880;SDS011;2966;52.598;10.928;2022-10-15T10:28:03;30.50;;;18.80;;
5880;SDS011;2966;52.598;10.928;2022-10-15T10:30:46;38.13;;;23.83;;
5880;SDS011;2966;52.598;10.928;2022-10-15T10:33:20;31.33;;;19.37;;
5880;SDS011;2966;52.598;10.928;2022-10-15T10:35:51;26.87;;;18.93;;
5880;SDS011;2966;52.598;10.928;2022-10-15T10:38:21;25.07;;;16.00;;
5880;SDS011;2966;52.598;10.928;2022-10-15T10:40:49;25.00;;;18.40;;
5880;SDS011;2966;52.598;10.928;2022-10-15T10:43:18;25.40;;;16.23;;
5880;SDS011;2966;52.598;10.928;2022-10-15T10:45:53;28.13;;;17.33;;
5880;SDS011;2966;52.598;10.928;2022-10-15T10:48:23;25.93;;;17.03;;
5880;SDS011;2966;52.598;10.928;2022-10-15T10:51:01;23.87;;;16.27;;
5880;SDS011;2966;52.598;10.928;2022-10-15T10:53:31;23.50;;;17.60;;
5880;SDS011;2966;52.598;10.928;2022-10-15T10:56:00;29.10;;;16.73;;
5880;SDS011;2966;52.598;10.928;2022-10-15T10:58:30;21.87;;;15.70;;
5880;SDS011;2966;52.598;10.928;2022-10-15T11:01:01;29.20;;;18.40;;
5880;SDS011;2966;52.598;10.928;2022-10-15T11:03:30;21.07;;;15.20;;
5880;SDS011;2966;52.598;10.928;2022-10-15T11:09:07;24.37;;;15.83;;
5880;SDS011;2966;52.598;10.928;2022-10-15T11:11:43;27.93;;;17.53;;
5880;SDS011;2966;52.598;10.928;2022-10-15T11:14:21;22.63;;;15.60;;
5880;SDS011;2966;52.598;10.928;2022-10-15T11:16:57;22.80;;;15.10;;
5880;SDS011;2966;52.598;10.928;2022-10-15T11:19:33;21.33;;;15.37;;
5880;SDS011;2966;52.598;10.928;2022-10-15T11:22:13;21.80;;;15.23;;
5880;SDS011;2966;52.598;10.928;2022-10-15T11:24:53;22.70;;;15.70;;
5880;SDS011;2966;52.598;10.928;2022-10-15T11:27:34;24.40;;;15.83;;
5880;SDS011;2966;52.598;10.928;2022-10-15T11:30:14;32.60;;;21.00;;
5880;SDS011;2966;52.598;10.928;2022-10-15T11:32:52;24.53;;;16.73;;
5880;SDS011;2966;52.598;10.928;2022-10-15T11:35:28;26.70;;;15.80;;
5880;SDS011;2966;52.598;10.928;2022-10-15T11:38:04;21.43;;;15.17;;
5880;SDS011;2966;52.598;10.928;2022-10-15T11:40:46;19.03;;;15.20;;
5880;SDS011;2966;52.598;10.928;2022-10-15T11:43:29;24.37;;;20.13;;
5880;SDS011;2966;52.598;10.928;2022-10-15T11:46:09;25.30;;;17.30;;
5880;SDS011;2966;52.598;10.928;2022-10-15T11:48:46;20.03;;;14.97;;
5880;SDS011;2966;52.598;10.928;2022-10-15T11:51:23;20.73;;;13.70;;
5880;SDS011;2966;52.598;10.928;2022-10-15T11:56:53;18.70;;;14.97;;
5880;SDS011;2966;52.598;10.928;2022-10-15T11:59:32;19.40;;;12.60;;
5880;SDS011;2966;52.598;10.928;2022-10-15T12:02:05;15.97;;;12.77;;
5880;SDS011;2966;52.598;10.928;2022-10-15T12:04:38;15.43;;;12.70;;
5880;SDS011;2966;52.598;10.928;2022-10-15T12:07:10;14.67;;;10.67;;
5880;SDS011;2966;52.598;10.928;2022-10-15T12:09:42;16.40;;;13.03;;
5880;SDS011;2966;52.598;10.928;2022-10-15T12:12:16;15.63;;;13.50;;
5880;SDS011;2966;52.598;10.928;2022-10-15T12:14:54;15.20;;;13.60;;
5880;SDS011;2966;52.598;10.928;2022-10-15T12:17:35;16.63;;;12.37;;
5880;SDS011;2966;52.598;10.928;2022-10-15T12:20:07;13.50;;;10.73;;
5880;SDS011;2966;52.598;10.928;2022-10-15T12:22:39;15.60;;;11.57;;
5880;SDS011;2966;52.598;10.928;2022-10-15T12:28:13;13.63;;;10.70;;
5880;SDS011;2966;52.598;10.928;2022-10-15T12:30:51;16.20;;;12.17;;
5880;SDS011;2966;52.598;10.928;2022-10-15T12:33:23;10.70;;;8.40;;
5880;SDS011;2966;52.598;10.928;2022-10-15T12:35:56;14.33;;;10.80;;
5880;SDS011;2966;52.598;10.928;2022-10-15T12:38:26;20.73;;;10.80;;
5880;SDS011;2966;52.598;10.928;2022-10-15T12:40:55;11.83;;;10.00;;
5880;SDS011;2966;52.598;10.928;2022-10-15T12:43:26;9.87;;;8.87;;
5880;SDS011;2966;52.598;10.928;2022-10-15T12:45:55;10.33;;;8.07;;
5880;SDS011;2966;52.598;10.928;2022-10-15T12:48:28;10.13;;;8.10;;
5880;SDS011;2966;52.598;10.928;2022-10-15T13:03:24;6.93;;;6.07;;
5880;SDS011;2966;52.598;10.928;2022-10-15T13:06:11;15.23;;;11.60;;
5880;SDS011;2966;52.598;10.928;2022-10-15T13:08:49;7.30;;;6.50;;
5880;SDS011;2966;52.598;10.928;2022-10-15T13:11:20;8.10;;;7.30;;
5880;SDS011;2966;52.598;10.928;2022-10-15T13:13:50;8.80;;;6.30;;
5880;SDS011;2966;52.598;10.928;2022-10-15T13:16:22;5.10;;;4.70;;
5880;SDS011;2966;52.598;10.928;2022-10-15T13:18:50;14.77;;;13.57;;
5880;SDS011;2966;52.598;10.928;2022-10-15T13:21:19;8.90;;;7.90;;
5880;SDS011;2966;52.598;10.928;2022-10-15T13:23:49;4.50;;;4.10;;
5880;SDS011;2966;52.598;10.928;2022-10-15T13:26:18;13.27;;;11.03;;
5880;SDS011;2966;52.598;10.928;2022-10-15T13:28:46;13.00;;;8.87;;
5880;SDS011;2966;52.598;10.928;2022-10-15T13:31:17;16.00;;;11.83;;
5880;SDS011;2966;52.598;10.928;2022-10-15T13:33:49;16.80;;;9.43;;
5880;SDS011;2966;52.598;10.928;2022-10-15T13:36:19;5.70;;;5.23;;
5880;SDS011;2966;52.598;10.928;2022-10-15T13:38:56;3.70;;;3.40;;
5880;SDS011;2966;52.598;10.928;2022-10-15T13:41:28;3.87;;;3.50;;
5880;SDS011;2966;52.598;10.928;2022-10-15T13:43:58;6.13;;;5.63;;
5880;SDS011;2966;52.598;10.928;2022-10-15T13:46:27;6.70;;;6.17;;
5880;SDS011;2966;52.598;10.928;2022-10-15T13:48:58;6.07;;;5.50;;
5880;SDS011;2966;52.598;10.928;2022-10-15T13:51:28;3.13;;;2.93;;
5880;SDS011;2966;52.598;10.928;2022-10-15T13:53:58;4.93;;;4.30;;
5880;SDS011;2966;52.598;10.928;2022-10-15T13:56:27;9.40;;;8.60;;
5880;SDS011;2966;52.598;10.928;2022-10-15T13:58:55;4.30;;;4.00;;
5880;SDS011;2966;52.598;10.928;2022-10-15T14:01:24;2.40;;;2.20;;
5880;SDS011;2966;52.598;10.928;2022-10-15T14:03:53;3.07;;;2.40;;
5880;SDS011;2966;52.598;10.928;2022-10-15T14:06:24;3.43;;;3.23;;
5880;SDS011;2966;52.598;10.928;2022-10-15T14:08:52;1.63;;;1.53;;
5880;SDS011;2966;52.598;10.928;2022-10-15T14:11:20;7.20;;;6.57;;
5880;SDS011;2966;52.598;10.928;2022-10-15T14:13:49;4.60;;;4.20;;
5880;SDS011;2966;52.598;10.928;2022-10-15T14:16:17;2.53;;;2.33;;
5880;SDS011;2966;52.598;10.928;2022-10-15T14:18:47;2.37;;;2.17;;
5880;SDS011;2966;52.598;10.928;2022-10-15T14:21:16;2.30;;;2.10;;
5880;SDS011;2966;52.598;10.928;2022-10-15T14:23:47;5.13;;;3.27;;
5880;SDS011;2966;52.598;10.928;2022-10-15T14:26:14;3.77;;;2.10;;
5880;SDS011;2966;52.598;10.928;2022-10-15T14:28:49;2.40;;;2.20;;
5880;SDS011;2966;52.598;10.928;2022-10-15T14:31:29;6.37;;;4.50;;
5880;SDS011;2966;52.598;10.928;2022-10-15T14:34:02;4.53;;;3.93;;
5880;SDS011;2966;52.598;10.928;2022-10-15T14:36:30;3.20;;;3.00;;
5880;SDS011;2966;52.598;10.928;2022-10-15T14:42:03;3.33;;;3.03;;
5880;SDS011;2966;52.598;10.928;2022-10-15T14:44:41;3.00;;;2.70;;
5880;SDS011;2966;52.598;10.928;2022-10-15T14:47:13;4.67;;;3.80;;
5880;SDS011;2966;52.598;10.928;2022-10-15T14:49:44;3.20;;;3.00;;
5880;SDS011;2966;52.598;10.928;2022-10-15T14:52:12;3.30;;;2.63;;
5880;SDS011;2966;52.598;10.928;2022-10-15T14:54:46;3.57;;;3.13;;
5880;SDS011;2966;52.598;10.928;2022-10-15T14:57:25;3.53;;;2.60;;
5880;SDS011;2966;52.598;10.928;2022-10-15T14:59:54;3.77;;;3.10;;
5880;SDS011;2966;52.598;10.928;2022-10-15T15:02:23;3.90;;;3.03;;
5880;SDS011;2966;52.598;10.928;2022-10-15T15:05:05;3.63;;;2.77;;
5880;SDS011;2966;52.598;10.928;2022-10-15T15:07:33;2.87;;;2.30;;
5880;SDS011;2966;52.598;10.928;2022-10-15T15:10:01;4.33;;;3.60;;
5880;SDS011;2966;52.598;10.928;2022-10-15T15:12:29;8.90;;;8.10;;
5880;SDS011;2966;52.598;10.928;2022-10-15T15:14:56;5.40;;;5.00;;
5880;SDS011;2966;52.598;10.928;2022-10-15T15:17:25;3.37;;;2.90;;
5880;SDS011;2966;52.598;10.928;2022-10-15T15:19:54;3.37;;;3.10;;
5880;SDS011;2966;52.598;10.928;2022-10-15T15:22:24;3.73;;;3.20;;
5880;SDS011;2966;52.598;10.928;2022-10-15T15:24:53;4.47;;;3.80;;
5880;SDS011;2966;52.598;10.928;2022-10-15T15:27:23;2.13;;;1.93;;
5880;SDS011;2966;52.598;10.928;2022-10-15T15:29:52;3.20;;;2.90;;
5880;SDS011;2966;52.598;10.928;2022-10-15T15:32:20;3.70;;;3.17;;
5880;SDS011;2966;52.598;10.928;2022-10-15T15:34:47;6.60;;;3.93;;